sensor_id;sensor_type;location;lat;lon;timestamp;pressure;altitude;pressure_sealevel;temperature;humidity
30081;BME280;16902;50.816;12.828;2023-01-01T00:00:43;97762.56;;;15.13;100.00
30081;BME280;16902;50.816;12.828;2023-01-01T00:05:45;97763.00;;;15.03;100.00
30081;BME280;16902;50.816;12.828;2023-01-01T00:10:47;97767.50;;;14.96;100.00
30081;BME280;16902;50.816;12.828;2023-01-01T00:15:48;97767.28;;;14.98;100.00
30081;BME280;16902;50.816;12.828;2023-01-01T00:20:50;97775.75;;;15.00;100.00
30081;BME280;16902;50.816;12.828;2023-01-01T00:25:52;97789.44;;;15.02;100.00
30081;BME280;16902;50.816;12.828;2023-01-01T00:30:54;97789.63;;;15.07;100.00
30081;BME280;16902;50.816;12.828;2023-01-01T00:35:56;97783.16;;;15.16;100.00
30081;BME280;16902;50.816;12.828;2023-01-01T00:40:57;97787.59;;;15.15;100.00
30081;BME280;16902;50.816;12.828;2023-01-01T00:46:00;97784.75;;;15.24;100.00
30081;BME280;16902;50.816;12.828;2023-01-01T00:51:02;97789.19;;;15.16;100.00
30081;BME280;16902;50.816;12.828;2023-01-01T00:56:04;97796.88;;;15.11;100.00
30081;BME280;16902;50.816;12.828;2023-01-01T01:01:06;97803.97;;;15.04;100.00
30081;BME280;16902;50.816;12.828;2023-01-01T01:06:10;97804.59;;;15.00;100.00
30081;BME280;16902;50.816;12.828;2023-01-01T01:11:16;97800.81;;;14.82;100.00
30081;BME280;16902;50.816;12.828;2023-01-01T01:16:30;97817.53;;;14.88;100.00
30081;BME280;16902;50.816;12.828;2023-01-01T01:21:33;97811.47;;;14.94;100.00
30081;BME280;16902;50.816;12.828;2023-01-01T01:26:35;97807.66;;;14.83;100.00
30081;BME280;16902;50.816;12.828;2023-01-01T01:31:37;97818.56;;;14.80;100.00
30081;BME280;16902;50.816;12.828;2023-01-01T01:36:39;97823.00;;;14.80;100.00
30081;BME280;16902;50.816;12.828;2023-01-01T01:41:41;97823.56;;;14.88;100.00
30081;BME280;16902;50.816;12.828;2023-01-01T01:46:43;97825.22;;;14.70;100.00
30081;BME280;16902;50.816;12.828;2023-01-01T01:51:46;97832.06;;;14.64;100.00
30081;BME280;16902;50.816;12.828;2023-01-01T01:56:52;97824.03;;;14.59;100.00
30081;BME280;16902;50.816;12.828;2023-01-01T02:01:55;97827.25;;;14.54;100.00
30081;BME280;16902;50.816;12.828;2023-01-01T02:06:58;97820.00;;;14.56;100.00
30081;BME280;16902;50.816;12.828;2023-01-01T02:12:00;97822.81;;;14.48;100.00
30081;BME280;16902;50.816;12.828;2023-01-01T02:17:20;97832.88;;;14.45;100.00
30081;BME280;16902;50.816;12.828;2023-01-01T02:27:58;97837.72;;;14.41;100.00
30081;BME280;16902;50.816;12.828;2023-01-01T02:33:06;97826.84;;;14.37;100.00
30081;BME280;16902;50.816;12.828;2023-01-01T02:43:11;97826.44;;;14.07;100.00
30081;BME280;16902;50.816;12.828;2023-01-01T02:54:26;97817.56;;;14.08;100.00
30081;BME280;16902;50.816;12.828;2023-01-01T03:20:27;97814.84;;;13.55;100.00
30081;BME280;16902;50.816;12.828;2023-01-01T03:25:35;97819.66;;;13.52;100.00
30081;BME280;16902;50.816;12.828;2023-01-01T03:30:40;97825.91;;;13.44;100.00
30081;BME280;16902;50.816;12.828;2023-01-01T03:35:48;97824.72;;;13.67;100.00
30081;BME280;16902;50.816;12.828;2023-01-01T03:40:58;97821.13;;;13.74;100.00
30081;BME280;16902;50.816;12.828;2023-01-01T03:46:03;97832.38;;;13.68;100.00
30081;BME280;16902;50.816;12.828;2023-01-01T03:51:13;97826.53;;;13.59;100.00
30081;BME280;16902;50.816;12.828;2023-01-01T03:56:40;97838.94;;;13.37;100.00
30081;BME280;16902;50.816;12.828;2023-01-01T04:01:50;97842.38;;;13.45;100.00
30081;BME280;16902;50.816;12.828;2023-01-01T04:06:54;97840.56;;;13.45;100.00
30081;BME280;16902;50.816;12.828;2023-01-01T04:11:58;97850.22;;;13.45;100.00
30081;BME280;16902;50.816;12.828;2023-01-01T04:17:05;97846.91;;;13.23;100.00
30081;BME280;16902;50.816;12.828;2023-01-01T04:22:07;97851.28;;;13.16;100.00
30081;BME280;16902;50.816;12.828;2023-01-01T04:27:09;97856.72;;;13.21;100.00
30081;BME280;16902;50.816;12.828;2023-01-01T04:32:11;97852.78;;;13.31;100.00
30081;BME280;16902;50.816;12.828;2023-01-01T04:37:14;97858.00;;;13.25;100.00
30081;BME280;16902;50.816;12.828;2023-01-01T04:42:16;97859.53;;;13.19;100.00
30081;BME280;16902;50.816;12.828;2023-01-01T04:47:17;97855.66;;;13.08;100.00
30081;BME280;16902;50.816;12.828;2023-01-01T04:52:20;97861.94;;;12.86;100.00
30081;BME280;16902;50.816;12.828;2023-01-01T04:57:22;97869.81;;;12.58;100.00
30081;BME280;16902;50.816;12.828;2023-01-01T05:02:24;97864.34;;;12.53;100.00
30081;BME280;16902;50.816;12.828;2023-01-01T05:07:26;97867.66;;;12.40;100.00
30081;BME280;16902;50.816;12.828;2023-01-01T05:12:29;97861.53;;;12.54;100.00
30081;BME280;16902;50.816;12.828;2023-01-01T05:17:30;97863.09;;;12.49;100.00
30081;BME280;16902;50.816;12.828;2023-01-01T05:22:32;97865.34;;;12.80;100.00
30081;BME280;16902;50.816;12.828;2023-01-01T05:27:34;97875.56;;;13.09;100.00
30081;BME280;16902;50.816;12.828;2023-01-01T05:32:36;97873.00;;;13.16;100.00
30081;BME280;16902;50.816;12.828;2023-01-01T05:37:38;97884.41;;;13.08;100.00
30081;BME280;16902;50.816;12.828;2023-01-01T05:42:40;97880.16;;;13.35;100.00
30081;BME280;16902;50.816;12.828;2023-01-01T05:47:42;97890.19;;;13.32;100.00
30081;BME280;16902;50.816;12.828;2023-01-01T05:52:44;97899.31;;;13.15;100.00
30081;BME280;16902;50.816;12.828;2023-01-01T05:57:46;97890.41;;;13.02;100.00
30081;BME280;16902;50.816;12.828;2023-01-01T06:02:48;97897.56;;;12.87;100.00
30081;BME280;16902;50.816;12.828;2023-01-01T06:07:51;97895.34;;;12.91;100.00
30081;BME280;16902;50.816;12.828;2023-01-01T06:12:56;97891.66;;;13.06;100.00
30081;BME280;16902;50.816;12.828;2023-01-01T06:18:01;97899.66;;;13.05;100.00
30081;BME280;16902;50.816;12.828;2023-01-01T06:23:03;97907.94;;;13.08;100.00
30081;BME280;16902;50.816;12.828;2023-01-01T06:28:07;97897.69;;;13.13;100.00
30081;BME280;16902;50.816;12.828;2023-01-01T06:33:09;97896.91;;;13.13;100.00
30081;BME280;16902;50.816;12.828;2023-01-01T06:38:11;97896.38;;;13.24;100.00
30081;BME280;16902;50.816;12.828;2023-01-01T06:43:13;97892.59;;;13.33;100.00
30081;BME280;16902;50.816;12.828;2023-01-01T06:48:14;97907.50;;;13.33;100.00
30081;BME280;16902;50.816;12.828;2023-01-01T06:53:16;97899.69;;;13.40;100.00
30081;BME280;16902;50.816;12.828;2023-01-01T06:58:18;97911.38;;;13.44;100.00
30081;BME280;16902;50.816;12.828;2023-01-01T07:03:20;97925.88;;;13.46;100.00
30081;BME280;16902;50.816;12.828;2023-01-01T07:08:22;97929.91;;;13.49;100.00
30081;BME280;16902;50.816;12.828;2023-01-01T07:13:25;97917.59;;;13.43;100.00
30081;BME280;16902;50.816;12.828;2023-01-01T07:18:27;97923.25;;;13.46;100.00
30081;BME280;16902;50.816;12.828;2023-01-01T07:23:32;97923.72;;;13.56;100.00
30081;BME280;16902;50.816;12.828;2023-01-01T07:28:34;97928.34;;;13.54;100.00
30081;BME280;16902;50.816;12.828;2023-01-01T07:33:36;97927.94;;;13.57;100.00
30081;BME280;16902;50.816;12.828;2023-01-01T07:38:38;97938.53;;;13.43;100.00
30081;BME280;16902;50.816;12.828;2023-01-01T07:43:40;97951.81;;;13.41;100.00
30081;BME280;16902;50.816;12.828;2023-01-01T07:48:41;97966.34;;;13.50;100.00
30081;BME280;16902;50.816;12.828;2023-01-01T07:53:43;97984.22;;;13.47;100.00
30081;BME280;16902;50.816;12.828;2023-01-01T07:58:45;97977.31;;;13.39;100.00
30081;BME280;16902;50.816;12.828;2023-01-01T08:03:51;97989.03;;;13.43;100.00
30081;BME280;16902;50.816;12.828;2023-01-01T08:08:53;97992.03;;;13.40;100.00
30081;BME280;16902;50.816;12.828;2023-01-01T08:13:55;98003.69;;;13.37;100.00
30081;BME280;16902;50.816;12.828;2023-01-01T08:18:57;98010.34;;;13.40;100.00
30081;BME280;16902;50.816;12.828;2023-01-01T08:23:58;98032.06;;;13.41;100.00
30081;BME280;16902;50.816;12.828;2023-01-01T08:29:03;98020.47;;;13.50;100.00
30081;BME280;16902;50.816;12.828;2023-01-01T08:34:05;98022.75;;;13.59;100.00
30081;BME280;16902;50.816;12.828;2023-01-01T08:39:07;98029.56;;;13.60;100.00
30081;BME280;16902;50.816;12.828;2023-01-01T08:44:09;98042.88;;;13.66;100.00
30081;BME280;16902;50.816;12.828;2023-01-01T08:49:11;98042.09;;;13.65;100.00
30081;BME280;16902;50.816;12.828;2023-01-01T08:54:13;98054.75;;;13.68;100.00
30081;BME280;16902;50.816;12.828;2023-01-01T08:59:15;98061.44;;;13.71;100.00
30081;BME280;16902;50.816;12.828;2023-01-01T09:04:17;98067.91;;;13.75;100.00
30081;BME280;16902;50.816;12.828;2023-01-01T09:09:19;98080.19;;;13.74;100.00
30081;BME280;16902;50.816;12.828;2023-01-01T09:14:27;98080.84;;;13.83;100.00
30081;BME280;16902;50.816;12.828;2023-01-01T09:19:29;98088.50;;;13.84;100.00
30081;BME280;16902;50.816;12.828;2023-01-01T09:24:31;98083.75;;;14.01;100.00
30081;BME280;16902;50.816;12.828;2023-01-01T09:29:33;98090.50;;;14.17;100.00
30081;BME280;16902;50.816;12.828;2023-01-01T09:34:35;98105.00;;;14.26;100.00
30081;BME280;16902;50.816;12.828;2023-01-01T09:39:37;98100.69;;;14.47;100.00
30081;BME280;16902;50.816;12.828;2023-01-01T09:44:57;98103.63;;;14.65;100.00
30081;BME280;16902;50.816;12.828;2023-01-01T09:50:18;98115.53;;;14.81;100.00
30081;BME280;16902;50.816;12.828;2023-01-01T09:55:27;98122.81;;;14.92;100.00
30081;BME280;16902;50.816;12.828;2023-01-01T10:00:31;98126.47;;;14.98;100.00
30081;BME280;16902;50.816;12.828;2023-01-01T10:05:53;98119.44;;;15.05;100.00
30081;BME280;16902;50.816;12.828;2023-01-01T10:11:14;98118.03;;;15.09;100.00
30081;BME280;16902;50.816;12.828;2023-01-01T10:21:31;98128.50;;;15.02;100.00
30081;BME280;16902;50.816;12.828;2023-01-01T10:26:36;98119.22;;;15.00;100.00
30081;BME280;16902;50.816;12.828;2023-01-01T10:31:40;98108.72;;;15.06;100.00
30081;BME280;16902;50.816;12.828;2023-01-01T10:36:43;98111.97;;;15.22;100.00
30081;BME280;16902;50.816;12.828;2023-01-01T10:41:46;98111.59;;;15.38;100.00
30081;BME280;16902;50.816;12.828;2023-01-01T10:46:53;98107.97;;;15.52;100.00
30081;BME280;16902;50.816;12.828;2023-01-01T10:51:57;98116.84;;;15.58;100.00
30081;BME280;16902;50.816;12.828;2023-01-01T10:57:13;98110.50;;;16.18;100.00
30081;BME280;16902;50.816;12.828;2023-01-01T11:14:56;98107.16;;;15.78;100.00
30081;BME280;16902;50.816;12.828;2023-01-01T11:20:01;98118.25;;;15.40;100.00
30081;BME280;16902;50.816;12.828;2023-01-01T11:25:15;98108.16;;;15.71;100.00
30081;BME280;16902;50.816;12.828;2023-01-01T11:35:27;98090.16;;;15.94;100.00
30081;BME280;16902;50.816;12.828;2023-01-01T11:40:37;98093.03;;;15.86;100.00
30081;BME280;16902;50.816;12.828;2023-01-01T11:45:41;98090.81;;;15.76;100.00
30081;BME280;16902;50.816;12.828;2023-01-01T11:51:10;98080.31;;;15.50;100.00
30081;BME280;16902;50.816;12.828;2023-01-01T11:56:20;98082.72;;;15.51;100.00
30081;BME280;16902;50.816;12.828;2023-01-01T12:01:52;98069.41;;;15.59;100.00
30081;BME280;16902;50.816;12.828;2023-01-01T12:07:20;98072.63;;;15.55;100.00
30081;BME280;16902;50.816;12.828;2023-01-01T12:12:33;98072.03;;;15.46;100.00
30081;BME280;16902;50.816;12.828;2023-01-01T12:17:42;98059.13;;;15.45;100.00
30081;BME280;16902;50.816;12.828;2023-01-01T12:22:44;98050.03;;;15.34;100.00
30081;BME280;16902;50.816;12.828;2023-01-01T12:33:42;98036.88;;;15.60;100.00
30081;BME280;16902;50.816;12.828;2023-01-01T13:00:39;98020.53;;;15.52;100.00
30081;BME280;16902;50.816;12.828;2023-01-01T13:05:46;98021.97;;;15.41;100.00
30081;BME280;16902;50.816;12.828;2023-01-01T13:10:54;98028.25;;;15.40;100.00
30081;BME280;16902;50.816;12.828;2023-01-01T13:15:57;98019.97;;;15.43;100.00
30081;BME280;16902;50.816;12.828;2023-01-01T13:21:05;98007.22;;;15.47;100.00
30081;BME280;16902;50.816;12.828;2023-01-01T13:36:48;98041.97;;;15.29;100.00
30081;BME280;16902;50.816;12.828;2023-01-01T13:41:50;98045.41;;;15.16;100.00
30081;BME280;16902;50.816;12.828;2023-01-01T13:47:09;98049.63;;;14.97;100.00
30081;BME280;16902;50.816;12.828;2023-01-01T14:03:18;98084.47;;;14.78;100.00
30081;BME280;16902;50.816;12.828;2023-01-01T14:08:32;98090.31;;;14.73;100.00
30081;BME280;16902;50.816;12.828;2023-01-01T14:13:40;98088.28;;;14.62;100.00
30081;BME280;16902;50.816;12.828;2023-01-01T14:18:50;98082.78;;;14.50;100.00
30081;BME280;16902;50.816;12.828;2023-01-01T14:28:59;98099.66;;;14.41;100.00
30081;BME280;16902;50.816;12.828;2023-01-01T14:34:22;98098.81;;;14.34;100.00
30081;BME280;16902;50.816;12.828;2023-01-01T14:39:30;98103.41;;;14.25;100.00
30081;BME280;16902;50.816;12.828;2023-01-01T14:44:35;98098.38;;;14.24;100.00
30081;BME280;16902;50.816;12.828;2023-01-01T14:49:38;98112.25;;;14.18;100.00
30081;BME280;16902;50.816;12.828;2023-01-01T14:54:42;98108.34;;;14.07;100.00
30081;BME280;16902;50.816;12.828;2023-01-01T14:59:47;98106.28;;;13.96;100.00
30081;BME280;16902;50.816;12.828;2023-01-01T15:04:50;98104.81;;;13.86;100.00
30081;BME280;16902;50.816;12.828;2023-01-01T15:09:53;98110.69;;;13.88;100.00
30081;BME280;16902;50.816;12.828;2023-01-01T15:14:56;98122.91;;;13.81;100.00
30081;BME280;16902;50.816;12.828;2023-01-01T15:25:02;98129.66;;;13.69;100.00
30081;BME280;16902;50.816;12.828;2023-01-01T15:30:05;98132.44;;;13.68;100.00
30081;BME280;16902;50.816;12.828;2023-01-01T15:35:23;98130.59;;;13.61;100.00
30081;BME280;16902;50.816;12.828;2023-01-01T15:40:33;98142.03;;;13.54;100.00
30081;BME280;16902;50.816;12.828;2023-01-01T15:45:38;98149.03;;;13.25;100.00
30081;BME280;16902;50.816;12.828;2023-01-01T15:56:02;98169.13;;;13.46;100.00
30081;BME280;16902;50.816;12.828;2023-01-01T16:01:12;98163.00;;;13.39;100.00
30081;BME280;16902;50.816;12.828;2023-01-01T16:06:15;98162.16;;;13.32;100.00
30081;BME280;16902;50.816;12.828;2023-01-01T16:11:18;98161.28;;;13.25;100.00
30081;BME280;16902;50.816;12.828;2023-01-01T16:16:27;98163.28;;;13.08;100.00
30081;BME280;16902;50.816;12.828;2023-01-01T16:21:30;98161.34;;;12.95;100.00
30081;BME280;16902;50.816;12.828;2023-01-01T16:26:36;98164.47;;;13.05;100.00
30081;BME280;16902;50.816;12.828;2023-01-01T16:31:38;98156.34;;;13.00;100.00
30081;BME280;16902;50.816;12.828;2023-01-01T16:36:41;98152.56;;;13.03;100.00
30081;BME280;16902;50.816;12.828;2023-01-01T16:41:44;98143.94;;;13.02;100.00
30081;BME280;16902;50.816;12.828;2023-01-01T16:46:46;98139.00;;;12.93;100.00
30081;BME280;16902;50.816;12.828;2023-01-01T16:51:47;98146.03;;;12.92;100.00
30081;BME280;16902;50.816;12.828;2023-01-01T16:56:51;98142.38;;;12.86;100.00
30081;BME280;16902;50.816;12.828;2023-01-01T17:01:53;98137.75;;;12.89;100.00
30081;BME280;16902;50.816;12.828;2023-01-01T17:06:54;98127.09;;;12.90;100.00
30081;BME280;16902;50.816;12.828;2023-01-01T17:11:56;98135.94;;;12.89;100.00
30081;BME280;16902;50.816;12.828;2023-01-01T17:16:58;98132.72;;;12.87;100.00
30081;BME280;16902;50.816;12.828;2023-01-01T17:22:00;98142.97;;;12.67;100.00
30081;BME280;16902;50.816;12.828;2023-01-01T17:27:02;98143.84;;;12.59;100.00
30081;BME280;16902;50.816;12.828;2023-01-01T17:32:04;98140.72;;;12.49;100.00
30081;BME280;16902;50.816;12.828;2023-01-01T17:37:06;98154.41;;;12.37;100.00
30081;BME280;16902;50.816;12.828;2023-01-01T17:42:08;98151.72;;;12.30;100.00
30081;BME280;16902;50.816;12.828;2023-01-01T17:47:10;98143.97;;;12.37;100.00
30081;BME280;16902;50.816;12.828;2023-01-01T17:52:12;98139.81;;;12.42;100.00
30081;BME280;16902;50.816;12.828;2023-01-01T17:57:14;98152.25;;;12.40;100.00
30081;BME280;16902;50.816;12.828;2023-01-01T18:02:16;98152.06;;;12.42;100.00
30081;BME280;16902;50.816;12.828;2023-01-01T18:07:18;98158.66;;;12.23;100.00
30081;BME280;16902;50.816;12.828;2023-01-01T18:12:20;98153.94;;;12.03;100.00
30081;BME280;16902;50.816;12.828;2023-01-01T18:17:22;98147.41;;;12.07;100.00
30081;BME280;16902;50.816;12.828;2023-01-01T18:22:24;98142.28;;;12.14;100.00
30081;BME280;16902;50.816;12.828;2023-01-01T18:27:25;98145.78;;;12.06;100.00
30081;BME280;16902;50.816;12.828;2023-01-01T18:32:27;98153.78;;;11.90;100.00
30081;BME280;16902;50.816;12.828;2023-01-01T18:37:29;98158.31;;;11.73;100.00
30081;BME280;16902;50.816;12.828;2023-01-01T18:47:54;98153.59;;;11.31;100.00
30081;BME280;16902;50.816;12.828;2023-01-01T18:53:17;98153.38;;;11.18;100.00
30081;BME280;16902;50.816;12.828;2023-01-01T19:10:49;98145.25;;;10.90;100.00
30081;BME280;16902;50.816;12.828;2023-01-01T19:16:05;98135.69;;;10.82;100.00
30081;BME280;16902;50.816;12.828;2023-01-01T19:21:21;98131.50;;;10.73;100.00
30081;BME280;16902;50.816;12.828;2023-01-01T19:26:32;98124.53;;;10.73;100.00
30081;BME280;16902;50.816;12.828;2023-01-01T19:31:35;98119.75;;;10.54;100.00
30081;BME280;16902;50.816;12.828;2023-01-01T19:36:37;98120.25;;;10.49;100.00
30081;BME280;16902;50.816;12.828;2023-01-01T19:41:39;98119.97;;;10.36;100.00
30081;BME280;16902;50.816;12.828;2023-01-01T19:46:41;98115.59;;;10.28;100.00
30081;BME280;16902;50.816;12.828;2023-01-01T19:51:43;98112.03;;;10.21;100.00
30081;BME280;16902;50.816;12.828;2023-01-01T19:56:45;98105.91;;;10.06;100.00
30081;BME280;16902;50.816;12.828;2023-01-01T20:01:48;98105.94;;;9.98;100.00
30081;BME280;16902;50.816;12.828;2023-01-01T20:07:09;98089.66;;;9.96;100.00
30081;BME280;16902;50.816;12.828;2023-01-01T20:12:11;98080.13;;;9.88;100.00
30081;BME280;16902;50.816;12.828;2023-01-01T20:17:14;98069.91;;;9.78;100.00
30081;BME280;16902;50.816;12.828;2023-01-01T20:22:18;98073.84;;;9.58;100.00
30081;BME280;16902;50.816;12.828;2023-01-01T20:27:22;98067.19;;;9.56;100.00
30081;BME280;16902;50.816;12.828;2023-01-01T20:32:27;98063.94;;;9.53;100.00
30081;BME280;16902;50.816;12.828;2023-01-01T20:37:29;98064.59;;;9.56;100.00
30081;BME280;16902;50.816;12.828;2023-01-01T20:42:37;98054.84;;;9.49;100.00
30081;BME280;16902;50.816;12.828;2023-01-01T20:47:39;98045.44;;;9.40;100.00
30081;BME280;16902;50.816;12.828;2023-01-01T20:52:41;98040.75;;;9.36;100.00
30081;BME280;16902;50.816;12.828;2023-01-01T20:57:43;98036.03;;;9.31;100.00
30081;BME280;16902;50.816;12.828;2023-01-01T21:02:45;98041.91;;;9.25;100.00
30081;BME280;16902;50.816;12.828;2023-01-01T21:07:47;98046.13;;;9.18;100.00
30081;BME280;16902;50.816;12.828;2023-01-01T21:12:48;98039.97;;;9.19;100.00
30081;BME280;16902;50.816;12.828;2023-01-01T21:17:50;98022.44;;;9.05;100.00
30081;BME280;16902;50.816;12.828;2023-01-01T21:22:53;98027.16;;;9.01;100.00
30081;BME280;16902;50.816;12.828;2023-01-01T21:27:57;98013.84;;;8.96;100.00
30081;BME280;16902;50.816;12.828;2023-01-01T21:33:00;98020.81;;;8.95;100.00
30081;BME280;16902;50.816;12.828;2023-01-01T21:38:17;98008.00;;;8.86;100.00
30081;BME280;16902;50.816;12.828;2023-01-01T21:43:38;97995.34;;;8.58;100.00
30081;BME280;16902;50.816;12.828;2023-01-01T21:53:49;98005.03;;;8.40;100.00
30081;BME280;16902;50.816;12.828;2023-01-01T21:58:52;98004.06;;;8.49;100.00
30081;BME280;16902;50.816;12.828;2023-01-01T22:04:23;98004.91;;;8.41;100.00
30081;BME280;16902;50.816;12.828;2023-01-01T22:09:30;97996.84;;;8.10;100.00
30081;BME280;16902;50.816;12.828;2023-01-01T22:14:36;97996.94;;;7.92;100.00
30081;BME280;16902;50.816;12.828;2023-01-01T22:19:39;97998.88;;;7.90;100.00
30081;BME280;16902;50.816;12.828;2023-01-01T22:24:45;97991.06;;;7.74;100.00
30081;BME280;16902;50.816;12.828;2023-01-01T22:29:51;97985.16;;;7.64;100.00
30081;BME280;16902;50.816;12.828;2023-01-01T22:35:01;97972.41;;;7.70;100.00
30081;BME280;16902;50.816;12.828;2023-01-01T22:45:18;97970.53;;;7.89;100.00
30081;BME280;16902;50.816;12.828;2023-01-01T22:50:22;97952.53;;;7.87;100.00
30081;BME280;16902;50.816;12.828;2023-01-01T22:55:24;97949.97;;;7.95;100.00
30081;BME280;16902;50.816;12.828;2023-01-01T23:00:25;97952.72;;;8.02;100.00
30081;BME280;16902;50.816;12.828;2023-01-01T23:05:27;97949.03;;;8.13;100.00
30081;BME280;16902;50.816;12.828;2023-01-01T23:10:29;97941.59;;;8.26;100.00
30081;BME280;16902;50.816;12.828;2023-01-01T23:15:32;97941.59;;;8.26;100.00
30081;BME280;16902;50.816;12.828;2023-01-01T23:20:57;97940.00;;;8.33;100.00
30081;BME280;16902;50.816;12.828;2023-01-01T23:25:59;97936.47;;;8.42;100.00
30081;BME280;16902;50.816;12.828;2023-01-01T23:31:02;97935.47;;;8.60;100.00
30081;BME280;16902;50.816;12.828;2023-01-01T23:36:07;97935.34;;;8.61;100.00
30081;BME280;16902;50.816;12.828;2023-01-01T23:41:09;97927.84;;;8.83;100.00
30081;BME280;16902;50.816;12.828;2023-01-01T23:46:15;97928.16;;;8.80;100.00
30081;BME280;16902;50.816;12.828;2023-01-01T23:51:18;97914.84;;;8.74;100.00
30081;BME280;16902;50.816;12.828;2023-01-01T23:56:20;97919.25;;;8.82;100.00
